Time;durP1;ratioP1;P1;durP2;ratioP2;P2;SDS_P1;SDS_P2;PMS_P1;PMS_P2;Temp;Humidity;BMP_temperature;BMP_pressure;BME280_temperature;BME280_humidity;BME280_pressure;Samples;Min_cycle;Max_cycle;Signal;HPM_P1;HPM_P2
2022/04/19 00:01:52;;;;;;;14.25;9.25;;;;;;;;;;5095529;28;20295;-73
2022/04/19 00:04:20;;;;;;;10.48;8.10;;;;;;;;;;5095322;28;20197;-73
2022/04/19 00:06:48;;;;;;;9.88;8.13;;;;;;;;;;5095597;28;20196;-73
2022/04/19 00:09:17;;;;;;;12.02;9.10;;;;;;;;;;5095444;28;20309;-73
2022/04/19 00:11:44;;;;;;;13.60;8.15;;;;;;;;;;5095269;28;20223;-74
2022/04/19 00:14:11;;;;;;;11.18;8.63;;;;;;;;;;5095098;28;20208;-73
2022/04/19 00:16:40;;;;;;;13.95;8.60;;;;;;;;;;5094812;28;20205;-73
2022/04/19 00:19:07;;;;;;;13.17;9.00;;;;;;;;;;5094780;28;20212;-74
2022/04/19 00:21:34;;;;;;;15.30;9.48;;;;;;;;;;5094949;28;21036;-73
2022/04/19 00:24:02;;;;;;;11.75;9.30;;;;;;;;;;5095249;28;20197;-73
2022/04/19 00:26:29;;;;;;;10.90;8.35;;;;;;;;;;5094890;28;20203;-73
2022/04/19 00:28:56;;;;;;;10.50;8.65;;;;;;;;;;5094907;28;20213;-73
2022/04/19 00:31:23;;;;;;;11.60;9.20;;;;;;;;;;5093658;28;20204;-74
2022/04/19 00:33:52;;;;;;;12.30;9.10;;;;;;;;;;5095425;28;20478;-74
2022/04/19 00:36:20;;;;;;;11.57;8.43;;;;;;;;;;5094367;28;20193;-74
2022/04/19 00:38:48;;;;;;;12.15;9.60;;;;;;;;;;5094410;28;20205;-74
2022/04/19 00:41:17;;;;;;;12.70;9.02;;;;;;;;;;5094323;28;20206;-74
2022/04/19 00:43:44;;;;;;;11.95;9.57;;;;;;;;;;5094695;28;20215;-74
2022/04/19 00:46:11;;;;;;;12.13;9.80;;;;;;;;;;5094457;28;20658;-73
2022/04/19 00:48:38;;;;;;;11.65;8.80;;;;;;;;;;5094638;28;20197;-74
2022/04/19 00:51:07;;;;;;;11.68;9.05;;;;;;;;;;5094545;28;20199;-74
2022/04/19 00:53:34;;;;;;;12.35;8.98;;;;;;;;;;5094444;28;20285;-74
2022/04/19 00:56:02;;;;;;;13.52;9.50;;;;;;;;;;5094123;28;20600;-74
2022/04/19 00:58:29;;;;;;;10.35;8.45;;;;;;;;;;5094046;28;20204;-74
2022/04/19 01:00:57;;;;;;;12.18;9.60;;;;;;;;;;5093946;28;20201;-73
2022/04/19 01:03:24;;;;;;;11.02;8.85;;;;;;;;;;5094340;28;20204;-75
2022/04/19 01:05:53;;;;;;;12.25;9.98;;;;;;;;;;5094173;28;20200;-73
2022/04/19 01:08:22;;;;;;;11.93;8.60;;;;;;;;;;5094231;28;20199;-74
2022/04/19 01:10:50;;;;;;;12.88;9.43;;;;;;;;;;5094003;28;20221;-74
2022/04/19 01:13:19;;;;;;;15.35;9.88;;;;;;;;;;5093841;28;20203;-74
2022/04/19 01:15:47;;;;;;;11.23;9.38;;;;;;;;;;5093841;28;20201;-74
2022/04/19 01:18:15;;;;;;;10.00;8.32;;;;;;;;;;5094162;28;20205;-74
2022/04/19 01:20:42;;;;;;;11.05;8.35;;;;;;;;;;5093994;28;20195;-74
2022/04/19 01:23:11;;;;;;;11.63;9.90;;;;;;;;;;5094037;28;20201;-74
2022/04/19 01:25:38;;;;;;;11.35;9.45;;;;;;;;;;5093836;28;20261;-74
2022/04/19 01:28:06;;;;;;;13.43;10.35;;;;;;;;;;5093718;28;20207;-74
2022/04/19 01:30:34;;;;;;;13.48;8.80;;;;;;;;;;5093740;28;20293;-74
2022/04/19 01:33:02;;;;;;;12.25;9.52;;;;;;;;;;5093592;28;20288;-73
2022/04/19 01:35:29;;;;;;;12.57;9.70;;;;;;;;;;5093764;28;20201;-74
2022/04/19 01:37:56;;;;;;;12.90;9.85;;;;;;;;;;5093446;28;20193;-74
2022/04/19 01:40:25;;;;;;;15.43;10.13;;;;;;;;;;5093638;28;20219;-74
2022/04/19 01:42:54;;;;;;;12.65;10.25;;;;;;;;;;5093888;28;20218;-74
2022/04/19 01:45:23;;;;;;;14.15;9.70;;;;;;;;;;5093186;28;20206;-74
2022/04/19 01:47:51;;;;;;;17.13;10.90;;;;;;;;;;5093493;28;20274;-74
2022/04/19 01:50:18;;;;;;;16.02;10.95;;;;;;;;;;5093526;28;20230;-74
2022/04/19 01:52:47;;;;;;;17.05;9.95;;;;;;;;;;5093526;28;20663;-74
2022/04/19 01:55:15;;;;;;;14.63;11.45;;;;;;;;;;5093690;28;20282;-74
2022/04/19 01:57:44;;;;;;;15.43;10.98;;;;;;;;;;5093204;28;20201;-73
2022/04/19 02:00:12;;;;;;;16.30;11.45;;;;;;;;;;5093580;28;20207;-74
2022/04/19 02:02:40;;;;;;;15.82;11.32;;;;;;;;;;5093504;28;20244;-74
2022/04/19 02:05:08;;;;;;;16.45;11.45;;;;;;;;;;5093708;28;20197;-73
2022/04/19 02:07:38;;;;;;;15.23;10.57;;;;;;;;;;5093462;28;20200;-73
2022/04/19 02:10:06;;;;;;;14.32;10.35;;;;;;;;;;5093689;28;20565;-73
2022/04/19 02:12:33;;;;;;;14.15;10.35;;;;;;;;;;5093519;28;20554;-73
2022/04/19 02:15:02;;;;;;;13.65;10.95;;;;;;;;;;5094124;28;20243;-73
2022/04/19 02:17:29;;;;;;;16.20;10.77;;;;;;;;;;5092956;28;20207;-73
2022/04/19 02:20:00;;;;;;;16.13;11.05;;;;;;;;;;5093929;28;20197;-73
2022/04/19 02:22:28;;;;;;;14.68;11.35;;;;;;;;;;5093523;28;20206;-73
2022/04/19 02:24:55;;;;;;;17.02;11.27;;;;;;;;;;5093270;28;20202;-73
2022/04/19 02:27:22;;;;;;;15.43;11.82;;;;;;;;;;5093418;28;20243;-73
2022/04/19 02:29:49;;;;;;;14.25;10.27;;;;;;;;;;5093169;28;20220;-73
2022/04/19 02:32:18;;;;;;;13.05;10.60;;;;;;;;;;5093471;28;20196;-73
2022/04/19 02:34:45;;;;;;;16.23;11.95;;;;;;;;;;5093259;28;20200;-73
2022/04/19 02:37:12;;;;;;;19.48;11.73;;;;;;;;;;5092790;28;20202;-74
2022/04/19 02:39:39;;;;;;;14.35;10.90;;;;;;;;;;5093177;28;20196;-74
2022/04/19 02:42:06;;;;;;;15.18;10.65;;;;;;;;;;5092862;28;20287;-74
2022/04/19 02:44:34;;;;;;;19.02;12.18;;;;;;;;;;5092961;28;20199;-73
2022/04/19 02:47:02;;;;;;;14.85;11.65;;;;;;;;;;5092668;28;20229;-73
2022/04/19 02:49:31;;;;;;;15.55;11.73;;;;;;;;;;5093310;28;20283;-73
2022/04/19 02:51:58;;;;;;;16.73;12.07;;;;;;;;;;5093377;28;20209;-73
2022/04/19 02:54:25;;;;;;;22.15;14.00;;;;;;;;;;5095198;28;20191;-73
2022/04/19 02:56:53;;;;;;;19.10;12.75;;;;;;;;;;5096712;28;20203;-73
2022/04/19 02:59:20;;;;;;;18.25;12.88;;;;;;;;;;5097101;28;20195;-73
2022/04/19 03:01:48;;;;;;;16.80;12.63;;;;;;;;;;5096382;28;20200;-73
2022/04/19 03:04:15;;;;;;;17.70;12.23;;;;;;;;;;5096587;28;20270;-73
2022/04/19 03:06:44;;;;;;;16.95;12.75;;;;;;;;;;5097067;28;20201;-74
2022/04/19 03:09:11;;;;;;;19.30;12.77;;;;;;;;;;5096299;28;20195;-74
2022/04/19 03:11:38;;;;;;;19.73;13.45;;;;;;;;;;5096753;28;20666;-73
2022/04/19 03:14:07;;;;;;;17.15;13.55;;;;;;;;;;5096196;28;20242;-73
2022/04/19 03:16:34;;;;;;;17.02;12.35;;;;;;;;;;5096493;28;20200;-74
2022/04/19 03:19:02;;;;;;;18.55;12.80;;;;;;;;;;5096887;28;20199;-74
2022/04/19 03:21:29;;;;;;;16.42;11.00;;;;;;;;;;5096048;28;20693;-74
2022/04/19 03:29:27;;;;;;;22.40;12.07;;;;;;;;;;5095955;28;20248;-74
2022/04/19 03:31:55;;;;;;;18.05;12.80;;;;;;;;;;5096581;28;20193;-74
2022/04/19 03:34:22;;;;;;;16.25;12.15;;;;;;;;;;5095799;28;20195;-74
2022/04/19 03:36:49;;;;;;;22.05;12.70;;;;;;;;;;5096346;28;20210;-73
2022/04/19 03:39:18;;;;;;;16.73;11.63;;;;;;;;;;5095744;28;20290;-73
2022/04/19 03:41:45;;;;;;;18.38;11.95;;;;;;;;;;5095940;28;20199;-74
2022/04/19 03:44:12;;;;;;;16.73;12.10;;;;;;;;;;5095912;28;20222;-73
2022/04/19 03:49:21;;;;;;;16.05;11.07;;;;;;;;;;5097081;27;20554;-73
2022/04/19 03:51:48;;;;;;;15.15;11.93;;;;;;;;;;5095719;28;20220;-73
2022/04/19 03:54:15;;;;;;;12.00;9.93;;;;;;;;;;5095273;28;20290;-73
2022/04/19 03:56:44;;;;;;;15.40;10.50;;;;;;;;;;5095925;28;20660;-73
2022/04/19 03:59:11;;;;;;;15.70;10.90;;;;;;;;;;5095093;28;20287;-73
2022/04/19 04:01:38;;;;;;;14.48;10.75;;;;;;;;;;5095282;28;20281;-74
2022/04/19 04:04:07;;;;;;;15.15;11.23;;;;;;;;;;5095649;28;20226;-73
2022/04/19 04:06:34;;;;;;;14.10;10.80;;;;;;;;;;5095193;28;20193;-74
2022/04/19 04:09:01;;;;;;;15.13;11.25;;;;;;;;;;5095053;28;20199;-74
2022/04/19 04:11:29;;;;;;;13.13;11.00;;;;;;;;;;5094997;28;20216;-74
2022/04/19 04:13:57;;;;;;;14.18;10.73;;;;;;;;;;5095259;28;20203;-74
2022/04/19 04:16:24;;;;;;;14.35;11.35;;;;;;;;;;5095481;28;20286;-76
2022/04/19 04:18:52;;;;;;;16.48;11.15;;;;;;;;;;5095165;28;20192;-74
2022/04/19 04:21:19;;;;;;;14.85;10.15;;;;;;;;;;5094885;28;20678;-78
2022/04/19 04:23:46;;;;;;;15.88;9.55;;;;;;;;;;5095277;28;20223;-72
2022/04/19 04:26:13;;;;;;;18.42;11.25;;;;;;;;;;5095634;28;20239;-72
2022/04/19 04:28:41;;;;;;;14.35;9.65;;;;;;;;;;5094989;28;20199;-72
2022/04/19 04:31:09;;;;;;;12.15;9.75;;;;;;;;;;5094642;28;20348;-72
2022/04/19 04:33:36;;;;;;;14.32;9.90;;;;;;;;;;5094543;28;20199;-72
2022/04/19 04:36:04;;;;;;;13.55;10.00;;;;;;;;;;5093703;28;20195;-72
2022/04/19 04:38:31;;;;;;;13.95;10.85;;;;;;;;;;5094121;28;20202;-72
2022/04/19 04:40:58;;;;;;;14.98;9.27;;;;;;;;;;5094306;28;20455;-72
2022/04/19 04:43:25;;;;;;;14.35;9.23;;;;;;;;;;5094127;28;20207;-72
2022/04/19 04:51:20;;;;;;;11.60;8.50;;;;;;;;;;5093878;28;20295;-72
2022/04/19 04:53:47;;;;;;;11.60;9.70;;;;;;;;;;5094742;28;20195;-72
2022/04/19 04:56:14;;;;;;;13.07;9.05;;;;;;;;;;5094359;28;20547;-72
2022/04/19 04:58:42;;;;;;;15.32;10.77;;;;;;;;;;5094358;28;20194;-71
2022/04/19 05:01:09;;;;;;;11.38;8.68;;;;;;;;;;5094132;28;20305;-71
2022/04/19 05:03:38;;;;;;;11.52;9.13;;;;;;;;;;5094137;28;20193;-71
2022/04/19 05:06:05;;;;;;;11.52;9.57;;;;;;;;;;5094393;28;20195;-72
2022/04/19 05:08:33;;;;;;;13.20;10.48;;;;;;;;;;5094460;28;20538;-72
2022/04/19 05:11:00;;;;;;;13.25;9.05;;;;;;;;;;5093852;28;20215;-72
2022/04/19 05:13:27;;;;;;;17.30;11.80;;;;;;;;;;5093839;28;20199;-72
2022/04/19 05:15:54;;;;;;;17.55;11.98;;;;;;;;;;5093710;28;20201;-72
2022/04/19 05:18:21;;;;;;;16.48;12.50;;;;;;;;;;5094071;28;20547;-72
2022/04/19 05:20:50;;;;;;;17.58;10.60;;;;;;;;;;5093855;28;20660;-73
2022/04/19 05:23:17;;;;;;;15.63;11.20;;;;;;;;;;5093623;28;20198;-73
2022/04/19 05:25:44;;;;;;;11.98;10.13;;;;;;;;;;5093675;28;20193;-72
2022/04/19 05:28:11;;;;;;;13.05;9.68;;;;;;;;;;5094001;28;20288;-72
2022/04/19 05:30:39;;;;;;;17.23;12.73;;;;;;;;;;5093476;28;20222;-72
2022/04/19 05:33:06;;;;;;;15.32;10.23;;;;;;;;;;5093752;28;20550;-72
2022/04/19 05:35:33;;;;;;;16.23;10.98;;;;;;;;;;5093731;28;20550;-72
2022/04/19 05:38:02;;;;;;;19.15;10.05;;;;;;;;;;5093584;28;20235;-72
2022/04/19 05:40:29;;;;;;;17.33;11.40;;;;;;;;;;5093824;28;20624;-72
2022/04/19 05:42:57;;;;;;;14.02;9.60;;;;;;;;;;5093589;28;20574;-72
2022/04/19 05:45:24;;;;;;;13.60;9.70;;;;;;;;;;5093517;28;20197;-72
2022/04/19 05:47:51;;;;;;;16.92;10.32;;;;;;;;;;5094147;28;20184;-72
2022/04/19 05:50:18;;;;;;;15.57;9.95;;;;;;;;;;5093534;28;20197;-72
2022/04/19 05:52:45;;;;;;;16.50;9.95;;;;;;;;;;5093757;28;20249;-72
2022/04/19 05:55:14;;;;;;;13.38;10.10;;;;;;;;;;5093588;28;20282;-72
2022/04/19 05:57:41;;;;;;;13.30;9.50;;;;;;;;;;5093312;28;20194;-72
2022/04/19 06:00:09;;;;;;;13.60;10.02;;;;;;;;;;5093232;28;20201;-72
2022/04/19 06:05:21;;;;;;;17.83;9.85;;;;;;;;;;5093277;28;20200;-71
2022/04/19 06:07:52;;;;;;;15.25;8.95;;;;;;;;;;5093633;28;20193;-71
2022/04/19 06:10:22;;;;;;;17.15;11.93;;;;;;;;;;5093434;28;20728;-71
2022/04/19 06:12:49;;;;;;;11.63;9.80;;;;;;;;;;5093223;28;20242;-72
2022/04/19 06:15:16;;;;;;;14.50;9.43;;;;;;;;;;5093543;28;20195;-71
2022/04/19 06:17:43;;;;;;;13.43;9.15;;;;;;;;;;5093499;28;20302;-71
2022/04/19 06:20:12;;;;;;;11.77;9.00;;;;;;;;;;5093021;28;20191;-72
2022/04/19 06:22:39;;;;;;;15.35;9.30;;;;;;;;;;5093073;28;20296;-72
2022/04/19 06:25:07;;;;;;;15.23;9.65;;;;;;;;;;5093182;28;20715;-72
2022/04/19 06:27:35;;;;;;;13.02;8.25;;;;;;;;;;5093261;28;20201;-72
2022/04/19 06:30:03;;;;;;;14.93;8.65;;;;;;;;;;5096811;28;20193;-72
2022/04/19 06:32:30;;;;;;;14.82;8.38;;;;;;;;;;5097123;28;20230;-72
2022/04/19 06:34:57;;;;;;;13.35;8.98;;;;;;;;;;5097066;28;20287;-72
2022/04/19 06:37:25;;;;;;;15.85;10.57;;;;;;;;;;5096812;28;20288;-72
2022/04/19 06:39:52;;;;;;;11.32;7.78;;;;;;;;;;5096972;28;20242;-71
2022/04/19 06:42:20;;;;;;;13.45;8.40;;;;;;;;;;5097125;28;20197;-72
2022/04/19 06:44:48;;;;;;;13.20;8.10;;;;;;;;;;5096538;28;20204;-73
2022/04/19 06:47:15;;;;;;;10.88;8.15;;;;;;;;;;5097001;28;20482;-71
2022/04/19 06:49:42;;;;;;;12.23;8.37;;;;;;;;;;5096781;28;20198;-71
2022/04/19 06:52:10;;;;;;;12.27;8.00;;;;;;;;;;5097076;28;20565;-72
2022/04/19 06:54:37;;;;;;;13.75;8.55;;;;;;;;;;5096911;28;20442;-71
2022/04/19 06:57:05;;;;;;;13.68;8.32;;;;;;;;;;5097162;28;20193;-72
2022/04/19 06:59:32;;;;;;;11.50;7.75;;;;;;;;;;5096673;28;20289;-72
2022/04/19 07:02:01;;;;;;;12.90;8.50;;;;;;;;;;5096897;28;20217;-72
2022/04/19 07:04:28;;;;;;;16.00;8.40;;;;;;;;;;5096198;28;20240;-72
2022/04/19 07:06:56;;;;;;;12.82;8.25;;;;;;;;;;5096386;28;20197;-72
2022/04/19 07:09:23;;;;;;;12.83;8.20;;;;;;;;;;5096731;28;20196;-72
2022/04/19 07:11:51;;;;;;;9.57;7.33;;;;;;;;;;5096581;28;20490;-72
2022/04/19 07:14:18;;;;;;;11.30;7.95;;;;;;;;;;5096131;28;20523;-72
2022/04/19 07:16:46;;;;;;;11.80;8.15;;;;;;;;;;5096537;28;20547;-72
2022/04/19 07:19:15;;;;;;;11.35;8.48;;;;;;;;;;5096149;28;20229;-72
2022/04/19 07:27:12;;;;;;;10.77;7.53;;;;;;;;;;5096288;28;20442;-72
2022/04/19 07:29:39;;;;;;;11.73;7.70;;;;;;;;;;5096253;28;20299;-72
2022/04/19 07:32:07;;;;;;;14.03;7.97;;;;;;;;;;5096077;28;20479;-73
2022/04/19 07:34:36;;;;;;;11.73;7.73;;;;;;;;;;5096094;28;20443;-72
2022/04/19 07:37:03;;;;;;;9.80;7.07;;;;;;;;;;5095896;28;20787;-72
2022/04/19 07:39:30;;;;;;;10.00;7.17;;;;;;;;;;5095660;28;20451;-72
2022/04/19 07:42:00;;;;;;;13.20;7.37;;;;;;;;;;5095650;28;20443;-72
2022/04/19 07:44:29;;;;;;;10.13;7.30;;;;;;;;;;5096109;28;20979;-72
2022/04/19 07:46:56;;;;;;;10.90;7.17;;;;;;;;;;5095870;28;20471;-72
2022/04/19 07:49:24;;;;;;;10.30;7.00;;;;;;;;;;5095791;28;20789;-71
2022/04/19 07:51:54;;;;;;;10.40;6.47;;;;;;;;;;5095561;28;20482;-72
2022/04/19 07:54:22;;;;;;;8.80;6.43;;;;;;;;;;5096071;28;20861;-72
2022/04/19 07:56:49;;;;;;;11.70;6.50;;;;;;;;;;5095098;28;20469;-72
2022/04/19 07:59:16;;;;;;;8.60;6.10;;;;;;;;;;5095146;28;20440;-72
2022/04/19 08:01:43;;;;;;;12.80;6.40;;;;;;;;;;5095192;28;20966;-72
2022/04/19 08:04:10;;;;;;;12.33;7.40;;;;;;;;;;5095094;28;20538;-72
2022/04/19 08:06:38;;;;;;;12.17;7.30;;;;;;;;;;5095263;28;20450;-72
2022/04/19 08:09:07;;;;;;;11.77;6.47;;;;;;;;;;5095628;28;20497;-72
2022/04/19 08:11:34;;;;;;;13.80;6.73;;;;;;;;;;5095266;28;20475;-72
2022/04/19 08:14:01;;;;;;;11.67;7.60;;;;;;;;;;5095036;28;20483;-72
2022/04/19 08:16:28;;;;;;;10.03;7.10;;;;;;;;;;5095290;28;20454;-72
2022/04/19 08:18:56;;;;;;;8.73;7.03;;;;;;;;;;5095117;28;20441;-72
2022/04/19 08:21:23;;;;;;;10.00;6.70;;;;;;;;;;5095090;28;20450;-72
2022/04/19 08:23:50;;;;;;;12.30;7.30;;;;;;;;;;5095101;28;20448;-72
2022/04/19 08:26:19;;;;;;;9.47;6.57;;;;;;;;;;5094866;28;20921;-72
2022/04/19 08:28:46;;;;;;;8.93;6.07;;;;;;;;;;5094517;28;20450;-72
2022/04/19 08:31:13;;;;;;;8.90;6.23;;;;;;;;;;5094659;28;20505;-72
2022/04/19 08:33:40;;;;;;;10.83;7.07;;;;;;;;;;5094867;28;20441;-72
2022/04/19 08:36:08;;;;;;;10.17;6.10;;;;;;;;;;5094800;28;20829;-73
2022/04/19 08:38:35;;;;;;;12.20;6.23;;;;;;;;;;5094697;28;20451;-72
2022/04/19 08:41:02;;;;;;;6.90;5.67;;;;;;;;;;5094625;28;20447;-72
2022/04/19 08:43:31;;;;;;;16.90;7.17;;;;;;;;;;5094485;28;20870;-72
2022/04/19 08:45:58;;;;;;;10.20;6.67;;;;;;;;;;5094347;28;20479;-72
2022/04/19 08:48:26;;;;;;;11.63;7.67;;;;;;;;;;5094616;28;20440;-72
2022/04/19 08:50:55;;;;;;;9.70;6.27;;;;;;;;;;5094027;28;20447;-72
2022/04/19 08:58:54;;;;;;;5.50;4.80;;;;;;;;;;5094347;28;20419;-72
2022/04/19 09:01:21;;;;;;;11.33;4.83;;;;;;;;;;5093933;28;20486;-72
2022/04/19 09:03:48;;;;;;;8.80;5.83;;;;;;;;;;5094216;28;20448;-73
2022/04/19 09:06:16;;;;;;;10.63;7.70;;;;;;;;;;5093854;28;20490;-72
2022/04/19 09:08:44;;;;;;;8.37;6.30;;;;;;;;;;5094294;28;20445;-72
2022/04/19 09:11:12;;;;;;;8.50;6.90;;;;;;;;;;5094083;28;20490;-72
2022/04/19 09:13:39;;;;;;;7.90;6.30;;;;;;;;;;5093777;28;20942;-72
2022/04/19 09:16:08;;;;;;;9.90;6.20;;;;;;;;;;5093945;28;20948;-72
2022/04/19 09:18:36;;;;;;;11.80;6.47;;;;;;;;;;5093947;28;20447;-72
2022/04/19 09:21:04;;;;;;;10.23;6.93;;;;;;;;;;5093686;28;20443;-72
2022/04/19 09:23:32;;;;;;;8.77;7.27;;;;;;;;;;5093802;28;20448;-72
2022/04/19 09:26:00;;;;;;;8.87;6.90;;;;;;;;;;5094239;28;20879;-71
2022/04/19 09:28:28;;;;;;;7.93;5.80;;;;;;;;;;5093389;28;20535;-72
2022/04/19 09:30:57;;;;;;;7.40;5.17;;;;;;;;;;5094316;28;20526;-72
2022/04/19 09:33:26;;;;;;;7.53;5.93;;;;;;;;;;5093968;28;20479;-72
2022/04/19 09:35:54;;;;;;;6.07;4.93;;;;;;;;;;5093771;28;20470;-72
2022/04/19 09:38:34;;;;;;;12.60;5.80;;;;;;;;;;5093362;28;20939;-72
2022/04/19 09:41:02;;;;;;;8.90;6.10;;;;;;;;;;5093422;28;20439;-72
2022/04/19 09:43:30;;;;;;;6.23;4.83;;;;;;;;;;5093261;28;20503;-72
2022/04/19 09:45:58;;;;;;;6.60;5.30;;;;;;;;;;5093253;28;20471;-72
2022/04/19 09:48:27;;;;;;;5.60;5.03;;;;;;;;;;5093262;28;20914;-72
2022/04/19 09:50:59;;;;;;;5.17;4.67;;;;;;;;;;5093176;28;20453;-72
2022/04/19 09:53:27;;;;;;;6.40;5.10;;;;;;;;;;5093547;28;20554;-72
2022/04/19 09:55:55;;;;;;;5.80;5.30;;;;;;;;;;5093076;28;20444;-72
2022/04/19 09:58:23;;;;;;;5.70;4.93;;;;;;;;;;5093557;28;20432;-73
2022/04/19 10:00:52;;;;;;;5.43;4.93;;;;;;;;;;5093435;28;20917;-72
2022/04/19 10:08:41;;;;;;;4.73;4.30;;;;;;;;;;5097130;28;20412;-72
2022/04/19 10:11:09;;;;;;;7.43;6.03;;;;;;;;;;5097463;28;20510;-73
2022/04/19 10:13:39;;;;;;;5.43;4.80;;;;;;;;;;5097191;28;20503;-72
2022/04/19 10:16:12;;;;;;;6.00;5.40;;;;;;;;;;5097120;28;20530;-72
2022/04/19 10:18:39;;;;;;;6.53;5.87;;;;;;;;;;5097173;28;20423;-72
2022/04/19 10:21:10;;;;;;;4.40;4.00;;;;;;;;;;5097039;28;20435;-72
2022/04/19 10:23:37;;;;;;;10.00;5.10;;;;;;;;;;5096791;28;20424;-73
2022/04/19 10:26:14;;;;;;;3.97;3.63;;;;;;;;;;5096701;28;20447;-73
2022/04/19 10:28:42;;;;;;;4.60;4.20;;;;;;;;;;5096994;28;20440;-73
2022/04/19 10:31:09;;;;;;;4.60;3.67;;;;;;;;;;5096818;28;20454;-73
2022/04/19 10:33:48;;;;;;;4.90;4.33;;;;;;;;;;5096898;28;20471;-72
2022/04/19 10:36:17;;;;;;;7.40;4.50;;;;;;;;;;5096599;28;20475;-72
2022/04/19 10:38:45;;;;;;;5.33;4.83;;;;;;;;;;5096370;28;20440;-73
2022/04/19 10:41:13;;;;;;;4.77;4.20;;;;;;;;;;5096938;28;20447;-73
2022/04/19 10:43:40;;;;;;;5.47;4.63;;;;;;;;;;5096691;28;20784;-72
2022/04/19 10:46:23;;;;;;;7.00;4.93;;;;;;;;;;5096620;28;20830;-73
2022/04/19 10:49:08;;;;;;;5.43;4.60;;;;;;;;;;5096446;28;20797;-72
2022/04/19 10:51:37;;;;;;;7.10;4.60;;;;;;;;;;5096461;28;20522;-72
2022/04/19 10:54:04;;;;;;;4.97;4.53;;;;;;;;;;5096752;28;20475;-73
2022/04/19 10:56:31;;;;;;;3.93;3.63;;;;;;;;;;5096384;28;20479;-72
2022/04/19 10:59:18;;;;;;;4.50;4.00;;;;;;;;;;5096603;28;20435;-72
2022/04/19 11:01:46;;;;;;;5.37;4.33;;;;;;;;;;5096821;28;20844;-73
2022/04/19 11:04:31;;;;;;;4.57;3.70;;;;;;;;;;5096431;28;20438;-72
2022/04/19 11:07:01;;;;;;;5.80;4.40;;;;;;;;;;5096438;28;20447;-73
2022/04/19 11:09:29;;;;;;;4.90;4.50;;;;;;;;;;5096397;28;20463;-73
2022/04/19 11:12:08;;;;;;;4.90;4.00;;;;;;;;;;5096201;28;20499;-73
2022/04/19 11:14:40;;;;;;;3.90;3.53;;;;;;;;;;5095716;28;20426;-73
2022/04/19 11:17:24;;;;;;;3.50;2.97;;;;;;;;;;5096365;28;20444;-73
2022/04/19 11:19:55;;;;;;;3.70;2.53;;;;;;;;;;5096548;28;20484;-73
2022/04/19 11:22:29;;;;;;;2.93;2.63;;;;;;;;;;5095928;28;20451;-72
2022/04/19 11:25:04;;;;;;;4.43;3.60;;;;;;;;;;5095914;28;20422;-72
2022/04/19 11:27:50;;;;;;;3.63;3.30;;;;;;;;;;5096536;28;20440;-73
2022/04/19 11:30:17;;;;;;;4.50;3.43;;;;;;;;;;5095950;28;20494;-73
2022/04/19 11:32:50;;;;;;;3.37;3.07;;;;;;;;;;5095730;28;20475;-73
2022/04/19 11:35:18;;;;;;;3.50;3.20;;;;;;;;;;5095770;28;20795;-73
2022/04/19 11:37:46;;;;;;;3.03;2.70;;;;;;;;;;5095833;28;20437;-74
2022/04/19 11:48:38;;;;;;;5.00;2.70;;;;;;;;;;5095537;28;20498;-74
2022/04/19 11:51:10;;;;;;;2.73;2.53;;;;;;;;;;5095151;28;20436;-74
2022/04/19 11:53:37;;;;;;;3.43;2.50;;;;;;;;;;5093816;28;20486;-74
2022/04/19 11:56:06;;;;;;;2.57;2.37;;;;;;;;;;5095013;28;20444;-75
2022/04/19 11:58:34;;;;;;;2.50;2.30;;;;;;;;;;5094921;28;20492;-74
2022/04/19 12:01:03;;;;;;;3.00;2.80;;;;;;;;;;5094636;28;20519;-74
2022/04/19 12:03:32;;;;;;;3.27;3.07;;;;;;;;;;5094815;28;20527;-75
2022/04/19 12:06:06;;;;;;;4.97;2.50;;;;;;;;;;5095544;28;20774;-74
2022/04/19 12:08:37;;;;;;;3.17;2.87;;;;;;;;;;5094843;28;20461;-74
2022/04/19 12:11:06;;;;;;;3.97;2.00;;;;;;;;;;5095361;28;20506;-74
2022/04/19 12:13:33;;;;;;;3.47;2.20;;;;;;;;;;5095287;28;20479;-75
2022/04/19 12:16:07;;;;;;;2.97;2.67;;;;;;;;;;5095400;28;20445;-75
2022/04/19 12:18:35;;;;;;;2.60;2.40;;;;;;;;;;5095407;28;20440;-75
2022/04/19 12:21:03;;;;;;;2.80;1.93;;;;;;;;;;5094649;28;20448;-74
2022/04/19 12:23:30;;;;;;;2.10;1.90;;;;;;;;;;5094711;28;20456;-75
2022/04/19 12:26:04;;;;;;;2.63;2.10;;;;;;;;;;5093765;28;20479;-75
2022/04/19 12:28:46;;;;;;;2.30;2.10;;;;;;;;;;5094758;28;20496;-74
2022/04/19 12:31:32;;;;;;;2.50;2.27;;;;;;;;;;5094953;28;20920;-74
2022/04/19 12:33:59;;;;;;;2.30;2.10;;;;;;;;;;5094459;28;20661;-75
2022/04/19 12:36:27;;;;;;;2.00;1.90;;;;;;;;;;5094864;28;20501;-75
2022/04/19 12:39:02;;;;;;;2.73;2.53;;;;;;;;;;5094497;28;20524;-75
2022/04/19 12:41:39;;;;;;;3.13;2.00;;;;;;;;;;5094816;28;20470;-74
2022/04/19 12:44:09;;;;;;;2.30;1.90;;;;;;;;;;5094674;28;20436;-75
2022/04/19 12:46:40;;;;;;;2.13;1.70;;;;;;;;;;5094304;28;20482;-75
2022/04/19 12:49:08;;;;;;;22.27;2.40;;;;;;;;;;5093892;28;20425;-74
2022/04/19 12:51:37;;;;;;;2.43;1.60;;;;;;;;;;5094424;28;20476;-74
2022/04/19 12:54:07;;;;;;;4.30;1.50;;;;;;;;;;5094401;28;20543;-74
2022/04/19 12:56:40;;;;;;;2.00;1.90;;;;;;;;;;5094056;28;20445;-74
2022/04/19 12:59:09;;;;;;;2.67;2.20;;;;;;;;;;5094137;28;20436;-74
2022/04/19 13:01:36;;;;;;;1.70;1.60;;;;;;;;;;5094354;28;20444;-74
2022/04/19 13:04:03;;;;;;;2.53;1.93;;;;;;;;;;5094081;28;20955;-75
2022/04/19 13:12:19;;;;;;;2.23;1.90;;;;;;;;;;5094238;28;20553;-74
2022/04/19 13:14:49;;;;;;;3.00;2.60;;;;;;;;;;5094275;28;20474;-75
2022/04/19 13:17:16;;;;;;;3.50;2.60;;;;;;;;;;5093797;28;20451;-75
2022/04/19 13:19:44;;;;;;;2.50;2.30;;;;;;;;;;5093970;28;20491;-75
2022/04/19 13:22:12;;;;;;;2.50;2.33;;;;;;;;;;5093796;28;20441;-75
2022/04/19 13:24:39;;;;;;;3.30;3.00;;;;;;;;;;5093486;28;20451;-74
2022/04/19 13:27:07;;;;;;;2.80;2.60;;;;;;;;;;5093889;28;20440;-75
2022/04/19 13:29:35;;;;;;;3.30;2.97;;;;;;;;;;5093477;28;20909;-75
2022/04/19 13:32:04;;;;;;;3.40;2.97;;;;;;;;;;5093327;28;20543;-75
2022/04/19 13:34:31;;;;;;;3.07;2.57;;;;;;;;;;5093699;28;20478;-75
2022/04/19 13:36:58;;;;;;;7.83;2.93;;;;;;;;;;5093473;28;20437;-75
2022/04/19 13:39:25;;;;;;;3.17;2.60;;;;;;;;;;5093393;28;20436;-75
2022/04/19 13:41:53;;;;;;;3.97;3.53;;;;;;;;;;5093382;28;20625;-75
2022/04/19 13:44:20;;;;;;;3.03;2.83;;;;;;;;;;5094063;28;20523;-76
2022/04/19 13:46:48;;;;;;;5.10;2.90;;;;;;;;;;5093903;28;20472;-76
2022/04/19 13:49:18;;;;;;;3.30;3.00;;;;;;;;;;5091814;28;20469;-74
2022/04/19 13:51:45;;;;;;;3.37;3.07;;;;;;;;;;5092960;28;20519;-75
2022/04/19 13:54:14;;;;;;;4.90;2.90;;;;;;;;;;5094103;28;20855;-75
2022/04/19 13:56:42;;;;;;;3.10;2.80;;;;;;;;;;5093573;28;20539;-75
2022/04/19 13:59:10;;;;;;;3.67;3.33;;;;;;;;;;5093503;28;20436;-75
2022/04/19 14:01:38;;;;;;;8.13;4.93;;;;;;;;;;5093375;28;20464;-75
2022/04/19 14:04:05;;;;;;;7.17;4.00;;;;;;;;;;5093086;28;20454;-75
2022/04/19 14:06:38;;;;;;;3.27;3.03;;;;;;;;;;5093244;28;20436;-74
2022/04/19 14:09:05;;;;;;;3.70;3.40;;;;;;;;;;5092629;28;20431;-74
2022/04/19 14:11:35;;;;;;;8.53;3.33;;;;;;;;;;5092944;28;20466;-73
2022/04/19 14:14:02;;;;;;;4.00;3.03;;;;;;;;;;5093335;28;20529;-73
2022/04/19 14:16:30;;;;;;;3.40;3.10;;;;;;;;;;5093169;28;20982;-73
2022/04/19 14:18:58;;;;;;;3.37;3.07;;;;;;;;;;5093493;28;20448;-72
2022/04/19 14:21:25;;;;;;;4.37;2.87;;;;;;;;;;5093201;28;20504;-72
2022/04/19 14:23:53;;;;;;;4.17;3.80;;;;;;;;;;5093208;28;20443;-72
2022/04/19 14:26:21;;;;;;;5.33;3.90;;;;;;;;;;5093078;28;20439;-72
2022/04/19 14:34:18;;;;;;;3.83;3.30;;;;;;;;;;5092897;28;20553;-72
2022/04/19 14:36:45;;;;;;;5.93;3.10;;;;;;;;;;5092899;28;20450;-73
2022/04/19 14:39:13;;;;;;;4.40;3.00;;;;;;;;;;5092977;28;20478;-73
2022/04/19 14:41:41;;;;;;;3.67;3.10;;;;;;;;;;5092576;28;20926;-73
2022/04/19 14:44:09;;;;;;;2.93;2.73;;;;;;;;;;5092913;28;20497;-72
2022/04/19 14:46:36;;;;;;;3.17;2.87;;;;;;;;;;5092842;28;20503;-72
2022/04/19 14:49:04;;;;;;;4.60;3.00;;;;;;;;;;5092368;28;20531;-74
2022/04/19 14:54:17;;;;;;;2.53;2.33;;;;;;;;;;5096462;28;20857;-73
2022/04/19 14:56:44;;;;;;;2.70;2.33;;;;;;;;;;5096626;28;20432;-73
2022/04/19 14:59:12;;;;;;;4.03;2.60;;;;;;;;;;5096364;28;20526;-73
2022/04/19 15:01:39;;;;;;;3.83;2.50;;;;;;;;;;5096525;28;20530;-73
2022/04/19 15:04:06;;;;;;;3.80;3.00;;;;;;;;;;5096693;28;20527;-72
2022/04/19 15:06:34;;;;;;;3.87;3.20;;;;;;;;;;5096035;28;20443;-73
2022/04/19 15:09:01;;;;;;;2.63;2.43;;;;;;;;;;5095344;28;20447;-72
2022/04/19 15:11:29;;;;;;;5.43;2.60;;;;;;;;;;5095710;28;20527;-72
2022/04/19 15:13:57;;;;;;;3.47;3.17;;;;;;;;;;5096241;28;20503;-72
2022/04/19 15:16:24;;;;;;;3.33;3.03;;;;;;;;;;5096470;28;20520;-72
2022/04/19 15:18:51;;;;;;;5.30;2.70;;;;;;;;;;5096495;28;20528;-72
2022/04/19 15:21:18;;;;;;;6.33;2.93;;;;;;;;;;5096085;28;20437;-72
2022/04/19 15:23:46;;;;;;;2.60;2.40;;;;;;;;;;5095769;28;21006;-72
2022/04/19 15:26:13;;;;;;;3.70;2.73;;;;;;;;;;5096217;28;20445;-73
2022/04/19 15:28:41;;;;;;;6.20;4.13;;;;;;;;;;5095582;28;20451;-71
2022/04/19 15:31:09;;;;;;;8.70;5.13;;;;;;;;;;5095929;28;20446;-73
2022/04/19 15:33:36;;;;;;;5.47;3.63;;;;;;;;;;5095573;28;20491;-72
2022/04/19 15:36:04;;;;;;;3.53;2.70;;;;;;;;;;5095721;28;20529;-72